Time;durP1;ratioP1;P1;durP2;ratioP2;P2;SDS_P1;SDS_P2;PMS_P1;PMS_P2;Temp;Humidity;BMP_temperature;BMP_pressure;BME280_temperature;BME280_humidity;BME280_pressure;Samples;Min_cycle;Max_cycle;Signal;HPM_P1;HPM_P2
2022/09/10 00:02:46;;;;;;;6.28;2.60;;;;;;;16.77;78.83;100121.38;2027987;87;28252;-64
2022/09/10 00:05:48;;;;;;;3.62;2.20;;;;;;;16.75;78.86;100119.28;2027631;87;29021;-63
2022/09/10 00:08:49;;;;;;;3.00;2.15;;;;;;;16.74;79.00;100118.41;2028245;87;31444;-64
2022/09/10 00:11:51;;;;;;;4.58;2.45;;;;;;;16.73;79.05;100118.03;2027652;87;32774;-64
2022/09/10 00:14:53;;;;;;;7.65;2.30;;;;;;;16.69;79.07;100114.72;2027762;87;30032;-64
2022/09/10 00:17:54;;;;;;;2.80;2.02;;;;;;;16.69;79.30;100112.02;2027575;87;27675;-64
2022/09/10 00:20:58;;;;;;;2.52;1.85;;;;;;;16.66;79.25;100111.41;2027480;87;29691;-63
2022/09/10 00:24:01;;;;;;;3.47;1.90;;;;;;;16.65;79.21;100115.09;2026261;87;31193;-64
2022/09/10 00:27:03;;;;;;;5.97;2.60;;;;;;;16.58;79.14;100108.42;2025877;87;32953;-64
2022/09/10 00:30:07;;;;;;;5.83;2.00;;;;;;;16.54;79.24;100105.10;2025680;87;30845;-64
2022/09/10 00:33:09;;;;;;;6.22;2.10;;;;;;;16.52;79.37;100105.23;2026083;87;27693;-64
2022/09/10 00:36:16;;;;;;;2.08;1.90;;;;;;;16.49;79.40;100109.52;2025755;87;28794;-64
2022/09/10 00:39:19;;;;;;;2.62;1.95;;;;;;;16.50;79.62;100113.08;2026007;87;31771;-64
2022/09/10 00:42:20;;;;;;;2.47;1.70;;;;;;;16.49;79.59;100111.34;2025856;87;32993;-64
2022/09/10 00:45:27;;;;;;;3.42;1.90;;;;;;;16.45;79.53;100108.03;2025900;87;29706;-64
2022/09/10 00:48:30;;;;;;;6.55;1.95;;;;;;;16.44;79.62;100106.81;2025681;87;27588;-64
2022/09/10 00:51:34;;;;;;;3.22;1.30;;;;;;;16.41;79.57;100101.13;2025882;87;29895;-64
2022/09/10 00:54:35;;;;;;;;;;;;;;;16.37;79.65;100098.31;2029440;87;31858;-63
2022/09/10 00:57:37;;;;;;;4.10;1.90;;;;;;;16.35;79.82;100090.30;2027376;87;30503;-64
2022/09/10 01:00:40;;;;;;;3.08;1.90;;;;;;;16.32;79.82;100089.19;2027400;87;30775;-63
2022/09/10 01:03:43;;;;;;;3.25;1.75;;;;;;;16.28;79.76;100080.09;2027494;87;27668;-64
2022/09/10 01:06:45;;;;;;;3.65;2.30;;;;;;;16.27;79.98;100071.60;2027353;87;28665;-64
2022/09/10 01:09:47;;;;;;;2.72;1.70;;;;;;;16.25;80.04;100072.58;2027377;87;30345;-62
2022/09/10 01:13:24;;;;;;;2.00;1.75;;;;;;;16.22;80.00;100063.86;2027236;87;34134;-63
2022/09/10 01:16:37;;;;;;;4.67;2.40;;;;;;;16.15;79.93;100059.89;2025779;87;30162;-63
2022/09/10 01:19:53;;;;;;;7.87;2.72;;;;;;;16.04;79.97;100049.94;2027513;87;27676;-63
2022/09/10 01:23:18;;;;;;;4.72;2.30;;;;;;;16.04;79.97;100049.94;2028557;87;29097;-63
2022/09/10 01:26:46;;;;;;;;;;;;;;;15.99;80.30;100047.56;2032132;87;30961;-62
2022/09/10 01:29:59;;;;;;;3.72;2.00;;;;;;;15.95;80.35;100046.94;1939651;91;33030;-62
2022/09/10 01:33:11;;;;;;;3.33;2.15;;;;;;;15.88;80.49;100038.95;1939909;91;31019;-63
2022/09/10 01:36:18;;;;;;;1.90;1.67;;;;;;;15.88;80.65;100033.55;1923935;91;27703;-63
2022/09/10 01:39:20;;;;;;;5.03;2.05;;;;;;;15.85;80.75;100033.78;1917163;92;29515;-63
2022/09/10 01:42:26;;;;;;;3.42;2.15;;;;;;;15.85;80.86;100039.19;1916977;92;31851;-63
2022/09/10 01:45:29;;;;;;;4.55;2.85;;;;;;;15.72;80.90;100015.41;1916861;92;33814;-63
2022/09/10 01:49:01;;;;;;;3.65;2.10;;;;;;;15.86;81.09;100034.63;1958062;89;29699;-63
2022/09/10 01:52:24;;;;;;;2.05;1.82;;;;;;;15.86;81.11;100030.57;1966671;90;27797;-63
2022/09/10 01:55:34;;;;;;;3.92;2.08;;;;;;;15.87;81.19;100033.17;1956467;91;29476;-63
2022/09/10 01:58:41;;;;;;;6.33;1.82;;;;;;;15.87;81.39;100033.65;1956364;91;32409;-64
2022/09/10 02:01:49;;;;;;;5.05;1.80;;;;;;;15.87;81.42;100022.38;1956612;91;33795;-63
2022/09/10 02:04:51;;;;;;;4.42;2.15;;;;;;;15.82;81.41;100020.94;1936602;91;29653;-63
2022/09/10 02:08:01;;;;;;;3.75;2.20;;;;;;;15.83;81.25;100022.19;1999309;89;27725;-63
2022/09/10 02:11:05;;;;;;;5.75;2.55;;;;;;;15.79;81.25;100028.80;1999861;89;29186;-63
2022/09/10 02:14:07;;;;;;;3.37;1.90;;;;;;;15.76;81.37;100022.27;1986796;89;31077;-63
2022/09/10 02:17:08;;;;;;;3.02;1.90;;;;;;;15.74;81.47;100020.17;1999942;89;33451;-63
2022/09/10 02:20:13;;;;;;;3.47;1.60;;;;;;;15.68;81.67;100012.05;1986297;89;30798;-64
2022/09/10 02:23:18;;;;;;;3.40;1.80;;;;;;;15.68;81.67;100012.05;2001356;88;27625;-63
2022/09/10 02:26:19;;;;;;;4.80;1.70;;;;;;;15.63;81.61;100003.46;2001924;88;29029;-63
2022/09/10 02:29:21;;;;;;;3.92;1.67;;;;;;;15.63;81.61;100003.46;2002016;88;32245;-63
2022/09/10 02:32:23;;;;;;;2.05;1.82;;;;;;;15.60;81.94;99996.44;2001841;88;33763;-63
2022/09/10 02:35:25;;;;;;;4.17;1.95;;;;;;;15.57;82.02;99987.72;2001835;88;30742;-63
2022/09/10 02:38:28;;;;;;;3.52;2.00;;;;;;;15.57;82.21;99987.72;2001641;88;27681;-63
2022/09/10 02:41:33;;;;;;;4.70;1.87;;;;;;;15.56;82.37;99986.84;2002324;88;29064;-63
2022/09/10 02:44:34;;;;;;;4.47;2.15;;;;;;;15.56;82.38;99986.84;2002228;88;31538;-64
2022/09/10 02:47:36;;;;;;;4.12;2.00;;;;;;;15.56;82.45;99986.84;2010362;86;33444;-63
2022/09/10 02:50:39;;;;;;;5.53;2.22;;;;;;;15.57;82.56;99987.72;2024580;87;30418;-64
2022/09/10 02:53:40;;;;;;;3.33;2.08;;;;;;;15.55;82.71;99989.20;2023167;87;27691;-64
2022/09/10 02:56:42;;;;;;;2.30;2.10;;;;;;;15.54;82.74;99990.17;2022799;87;29222;-64
2022/09/10 02:59:43;;;;;;;3.52;2.15;;;;;;;15.51;82.55;99982.30;2023001;88;31116;-64
2022/09/10 03:02:46;;;;;;;4.58;2.05;;;;;;;15.49;82.77;99985.09;2022787;88;33432;-64
2022/09/10 03:05:48;;;;;;;2.15;1.95;;;;;;;15.47;82.76;99987.05;2022944;87;29662;-64
2022/09/10 03:08:50;;;;;;;2.92;1.90;;;;;;;15.46;82.79;99982.65;2023148;88;27608;-63
2022/09/10 03:11:53;;;;;;;2.72;1.87;;;;;;;15.46;82.93;99975.90;2022868;88;52821;-64
2022/09/10 03:14:56;;;;;;;2.83;1.70;;;;;;;15.45;82.83;99970.59;2022763;88;32276;-63
2022/09/10 03:17:58;;;;;;;2.02;1.82;;;;;;;15.42;82.96;99976.22;2022833;88;33312;-64
2022/09/10 03:21:19;;;;;;;3.52;2.45;;;;;;;15.27;82.89;99956.16;2023048;88;30079;-64
2022/09/10 03:24:21;;;;;;;4.42;2.00;;;;;;;15.34;83.14;99980.38;2018873;87;27713;-64
2022/09/10 03:27:22;;;;;;;2.90;2.20;;;;;;;15.30;83.09;99983.43;2022926;88;29087;-64
2022/09/10 03:30:24;;;;;;;3.15;2.30;;;;;;;15.28;83.17;99992.13;2023258;88;31431;-64
2022/09/10 03:33:27;;;;;;;5.12;2.30;;;;;;;15.28;83.41;99988.08;2023349;87;33313;-64
2022/09/10 03:36:32;;;;;;;7.28;2.17;;;;;;;15.29;83.35;99993.84;2022620;87;30500;-64
2022/09/10 03:39:33;;;;;;;;;;;;;;;15.30;83.52;99991.52;2025838;87;27666;-64
2022/09/10 03:42:35;;;;;;;4.00;1.60;;;;;;;15.32;83.69;99997.17;2023278;88;28647;-63
2022/09/10 03:45:36;;;;;;;3.40;1.75;;;;;;;15.31;83.68;99994.56;2022994;87;32242;-64
2022/09/10 03:48:38;;;;;;;2.47;1.70;;;;;;;15.31;83.69;99991.87;2024624;87;34143;-63
2022/09/10 03:51:39;;;;;;;3.80;1.77;;;;;;;15.31;83.70;99990.52;2027209;87;29690;-63
2022/09/10 03:54:40;;;;;;;2.55;2.10;;;;;;;15.33;83.87;99992.15;2036465;86;27675;-64
2022/09/10 03:57:42;;;;;;;3.00;1.85;;;;;;;15.36;83.82;99986.16;2036206;86;28907;-64
2022/09/10 04:00:45;;;;;;;7.10;2.60;;;;;;;15.36;83.82;99986.16;2036179;86;32269;-64
2022/09/10 04:03:47;;;;;;;3.10;2.25;;;;;;;15.22;83.89;99966.46;2036333;86;32967;-64
2022/09/10 04:06:48;;;;;;;3.87;2.20;;;;;;;15.36;83.93;99982.10;2036189;87;30821;-64
2022/09/10 04:09:50;;;;;;;10.60;3.37;;;;;;;15.32;83.98;99976.92;2036305;86;27658;-64
2022/09/10 04:12:53;;;;;;;4.28;2.37;;;;;;;15.33;83.89;99968.33;2036086;86;29931;-63
2022/09/10 04:15:54;;;;;;;3.12;2.70;;;;;;;15.31;84.16;99971.63;2036521;86;31089;-64
2022/09/10 04:18:56;;;;;;;4.35;2.83;;;;;;;15.28;84.16;99957.89;2036286;86;33352;-64
2022/09/10 04:21:57;;;;;;;5.83;3.30;;;;;;;15.28;84.16;99957.89;2033031;86;29996;-64
2022/09/10 04:24:59;;;;;;;3.37;2.70;;;;;;;15.25;84.04;99954.06;2025786;87;27719;-64
2022/09/10 04:28:01;;;;;;;5.15;2.62;;;;;;;15.24;84.17;99948.79;2025907;87;28674;-64
2022/09/10 04:31:02;;;;;;;3.62;2.47;;;;;;;15.23;84.33;99949.77;2026232;87;31407;-64
2022/09/10 04:34:04;;;;;;;5.08;2.17;;;;;;;15.22;84.39;99942.64;2025995;87;32994;-64
2022/09/10 04:37:05;;;;;;;3.05;1.90;;;;;;;15.18;84.58;99959.56;2025934;87;29722;-64
2022/09/10 04:40:08;;;;;;;3.45;2.15;;;;;;;15.18;84.58;99959.56;2026003;87;27654;-64
2022/09/10 04:43:10;;;;;;;4.00;2.67;;;;;;;15.03;84.69;99931.41;2025979;87;28681;-64
2022/09/10 04:46:12;;;;;;;4.00;2.02;;;;;;;15.16;84.57;99952.06;2026003;87;32317;-64
2022/09/10 04:49:13;;;;;;;4.55;2.30;;;;;;;15.16;84.81;99958.31;2008019;87;33445;-64
2022/09/10 04:52:16;;;;;;;3.45;2.15;;;;;;;15.17;84.62;99956.48;1987315;89;30833;-64
2022/09/10 04:55:17;;;;;;;3.47;1.77;;;;;;;15.21;84.89;99964.73;2001861;88;27734;-64
2022/09/10 04:58:19;;;;;;;7.45;2.15;;;;;;;15.21;84.89;99964.73;2001944;88;28490;-63
2022/09/10 05:01:20;;;;;;;5.80;2.55;;;;;;;15.25;84.85;99978.35;2001968;88;32215;-64
2022/09/10 05:04:21;;;;;;;3.55;2.20;;;;;;;15.24;84.88;99982.02;2001855;88;34125;-63
2022/09/10 05:07:23;;;;;;;4.03;2.35;;;;;;;15.32;85.02;99978.28;2001020;88;29683;-63
2022/09/10 05:10:26;;;;;;;5.35;2.20;;;;;;;15.36;85.03;99980.75;2001986;88;27558;-63
2022/09/10 05:13:29;;;;;;;3.05;2.22;;;;;;;15.38;84.94;99986.40;2001086;88;28728;-63
2022/09/10 05:16:31;;;;;;;3.22;2.50;;;;;;;15.40;85.02;99980.88;2002114;88;31471;-63
2022/09/10 05:19:32;;;;;;;3.37;2.10;;;;;;;15.46;84.94;99978.60;2001967;88;33359;-63
2022/09/10 05:22:34;;;;;;;3.55;2.52;;;;;;;15.46;84.94;99978.60;2000904;88;30845;-63
2022/09/10 05:25:36;;;;;;;3.65;2.33;;;;;;;15.55;85.33;99989.20;2001864;88;27784;-63
2022/09/10 05:28:38;;;;;;;2.40;2.20;;;;;;;15.55;85.33;99989.20;2001774;88;28703;-63
2022/09/10 05:31:40;;;;;;;5.47;2.08;;;;;;;15.58;85.14;99984.04;2002064;88;31061;-64
2022/09/10 05:34:41;;;;;;;3.70;2.30;;;;;;;15.61;85.19;99983.31;2001954;88;32988;-64
2022/09/10 05:37:44;;;;;;;4.12;2.15;;;;;;;15.64;85.08;99983.08;2001848;88;30039;-64
2022/09/10 05:40:45;;;;;;;3.45;1.95;;;;;;;15.60;85.00;99970.78;2002023;88;27706;-65
2022/09/10 05:43:48;;;;;;;2.83;2.45;;;;;;;15.68;85.17;99968.84;2001395;88;28717;-62
2022/09/10 05:46:50;;;;;;;5.47;2.92;;;;;;;15.77;85.23;99974.91;2001649;88;32022;-63
2022/09/10 05:49:52;;;;;;;3.40;2.55;;;;;;;15.84;85.07;99973.06;2021956;87;33047;-64
2022/09/10 05:52:54;;;;;;;2.87;1.98;;;;;;;15.85;84.98;99974.35;2025827;87;31011;-66
2022/09/10 05:55:55;;;;;;;4.53;2.50;;;;;;;15.87;84.86;99971.05;2025791;87;27738;-66
2022/09/10 05:58:59;;;;;;;4.62;1.95;;;;;;;15.91;84.94;99973.86;2025481;87;30851;-64
2022/09/10 06:02:01;;;;;;;5.72;2.52;;;;;;;15.92;84.72;99973.38;2025826;87;31016;-64
2022/09/10 06:05:04;;;;;;;3.00;2.35;;;;;;;15.92;84.68;99976.93;2025709;87;33360;-65
2022/09/10 06:08:06;;;;;;;3.42;2.30;;;;;;;15.91;84.91;99961.70;2025459;87;29809;-64
2022/09/10 06:11:10;;;;;;;5.60;3.02;;;;;;;15.98;84.72;99972.04;2027161;87;27699;-63
2022/09/10 06:14:14;;;;;;;2.92;2.02;;;;;;;16.02;84.98;99968.97;2025913;87;28758;-65
2022/09/10 06:17:18;;;;;;;5.10;2.33;;;;;;;16.08;84.87;99965.80;2025645;87;31863;-64
2022/09/10 06:20:20;;;;;;;4.90;2.35;;;;;;;16.15;85.00;99971.59;2025900;87;33974;-65
2022/09/10 06:23:22;;;;;;;5.55;3.22;;;;;;;16.23;85.09;99973.17;2027599;87;30030;-65
2022/09/10 06:26:24;;;;;;;5.40;3.67;;;;;;;16.32;85.01;99970.23;2027674;87;27744;-64
2022/09/10 06:29:25;;;;;;;4.47;3.25;;;;;;;16.49;85.08;99968.91;2027496;87;29056;-64
2022/09/10 06:32:26;;;;;;;4.85;3.22;;;;;;;16.65;85.16;99969.87;2027125;87;30967;-64
2022/09/10 06:35:28;;;;;;;5.60;3.92;;;;;;;16.97;85.49;99962.36;2027545;87;32288;-64
2022/09/10 06:38:35;;;;;;;5.80;3.08;;;;;;;17.38;85.94;99970.74;2027434;87;30836;-65
2022/09/10 06:41:37;;;;;;;7.08;2.67;;;;;;;17.83;85.72;99966.98;2027174;87;28353;-64
2022/09/10 06:44:38;;;;;;;4.55;2.62;;;;;;;18.21;85.24;99959.26;2027459;87;29438;-64
2022/09/10 06:47:41;;;;;;;2.45;2.25;;;;;;;18.48;84.78;99953.26;2027618;87;31063;-64
2022/09/10 06:50:53;;;;;;;2.65;2.08;;;;;;;18.64;83.49;99962.27;2027247;86;33853;-63
2022/09/10 06:53:58;;;;;;;3.27;2.40;;;;;;;18.79;83.24;99961.88;2031076;87;30968;-63
2022/09/10 06:57:03;;;;;;;6.85;3.22;;;;;;;18.90;83.04;99963.63;2025801;87;27669;-62
2022/09/10 07:00:06;;;;;;;2.25;2.05;;;;;;;19.01;82.63;99959.98;2025325;87;30370;-63
2022/09/10 07:03:08;;;;;;;3.37;2.12;;;;;;;19.21;82.61;99961.70;2025928;87;31744;-63
2022/09/10 07:06:14;;;;;;;4.92;2.33;;;;;;;19.50;82.56;99958.67;2025573;87;33627;-63
2022/09/10 07:09:22;;;;;;;4.45;1.95;;;;;;;19.85;81.92;99960.81;2025806;87;29647;-62
2022/09/10 07:12:23;;;;;;;1.85;1.75;;;;;;;19.91;80.13;99960.77;2025841;87;28477;-63
2022/09/10 07:15:24;;;;;;;8.65;2.22;;;;;;;19.99;79.62;99960.88;2025873;87;29010;-62
2022/09/10 07:18:27;;;;;;;4.17;2.30;;;;;;;20.12;79.51;99967.38;2025679;87;31220;-62
2022/09/10 07:21:30;;;;;;;4.33;2.10;;;;;;;20.21;78.85;99972.92;2027953;87;32991;-61
2022/09/10 07:24:31;;;;;;;1.75;1.60;;;;;;;20.29;79.50;99969.82;2031268;86;30749;-62
2022/09/10 07:27:33;;;;;;;2.52;1.80;;;;;;;20.38;78.64;99968.08;2027492;87;27703;-62
2022/09/10 07:30:34;;;;;;;3.17;1.35;;;;;;;20.47;78.77;99967.69;2027481;87;28983;-62
2022/09/10 07:33:36;;;;;;;3.92;1.65;;;;;;;20.82;77.99;99970.22;2027606;87;31394;-62
2022/09/10 07:36:38;;;;;;;4.03;1.27;;;;;;;21.00;77.40;99968.92;2027171;87;33687;-63
2022/09/10 07:39:40;;;;;;;2.67;1.40;;;;;;;21.01;76.90;99970.64;2007422;87;31118;-62
2022/09/10 07:42:43;;;;;;;2.05;1.42;;;;;;;20.93;76.73;99969.17;2027707;87;27870;-62
2022/09/10 07:45:45;;;;;;;5.95;2.30;;;;;;;21.00;76.89;99974.38;2027284;87;28769;-62
2022/09/10 07:48:50;;;;;;;2.33;1.55;;;;;;;20.93;75.66;99971.89;2026652;86;32338;-63
2022/09/10 07:51:53;;;;;;;2.08;1.52;;;;;;;20.77;74.78;99972.53;2023664;87;33128;-62
2022/09/10 07:54:54;;;;;;;3.25;1.65;;;;;;;20.69;75.76;99973.25;2022999;87;29697;-63
2022/09/10 07:57:56;;;;;;;5.60;1.80;;;;;;;20.75;75.46;99977.27;2022992;88;27711;-62
2022/09/10 08:00:58;;;;;;;3.67;2.20;;;;;;;20.99;75.96;99982.67;2022893;87;29941;-63
2022/09/10 08:04:04;;;;;;;3.37;1.80;;;;;;;21.37;75.73;99978.84;2022939;88;31899;-68
2022/09/10 08:07:06;;;;;;;2.35;1.50;;;;;;;21.82;75.15;99981.69;2018848;87;33017;-66
2022/09/10 08:10:10;;;;;;;2.52;1.40;;;;;;;22.13;75.12;99978.00;2022775;87;29694;-68
2022/09/10 08:13:11;;;;;;;2.52;1.70;;;;;;;22.65;75.32;99973.56;2023345;87;27617;-67
2022/09/10 08:16:17;;;;;;;4.15;1.47;;;;;;;23.16;73.50;99979.07;2022819;88;29988;-68
2022/09/10 08:19:19;;;;;;;3.77;1.57;;;;;;;23.54;72.68;99970.95;2022838;87;31047;-67
2022/09/10 08:22:20;;;;;;;3.00;1.60;;;;;;;23.85;71.77;99968.91;2022990;87;32719;-68
2022/09/10 08:25:21;;;;;;;4.00;1.85;;;;;;;24.07;70.73;99971.52;2022978;87;28809;-68
2022/09/10 08:28:26;;;;;;;3.37;1.72;;;;;;;24.28;70.50;99969.61;2022653;88;27735;-69
2022/09/10 08:31:27;;;;;;;3.52;1.75;;;;;;;24.45;69.32;99966.83;2023128;87;28680;-68
2022/09/10 08:34:28;;;;;;;3.65;1.70;;;;;;;24.52;68.32;99963.71;2022957;88;31401;-68
2022/09/10 08:37:31;;;;;;;2.33;1.57;;;;;;;24.57;68.38;99964.88;2023321;88;33885;-68
2022/09/10 08:40:37;;;;;;;2.45;1.30;;;;;;;24.50;67.03;99958.92;2022688;88;31101;-68
2022/09/10 08:44:06;;;;;;;1.62;1.45;;;;;;;24.40;65.96;99961.36;2022571;88;27676;-68
2022/09/10 08:47:34;;;;;;;2.58;1.12;;;;;;;24.27;65.82;99959.16;2022491;88;29153;-68
2022/09/10 08:50:59;;;;;;;1.60;1.50;;;;;;;24.28;66.41;99964.13;2024873;87;31372;-67
2022/09/10 08:54:06;;;;;;;2.15;1.20;;;;;;;24.17;65.44;99965.84;1995252;87;33061;-67
2022/09/10 08:57:13;;;;;;;1.45;1.20;;;;;;;23.91;64.30;99961.41;1960175;90;29637;-68
2022/09/10 09:00:22;;;;;;;4.62;1.45;;;;;;;23.70;64.60;99957.82;1983018;89;27727;-67
2022/09/10 09:03:44;;;;;;;2.55;1.30;;;;;;;23.54;64.39;99962.25;1984136;88;28660;-68
2022/09/10 09:06:51;;;;;;;5.58;1.60;;;;;;;23.40;64.78;99961.03;1983684;89;33089;-68
2022/09/10 09:09:53;;;;;;;2.85;1.45;;;;;;;23.24;64.57;99972.80;1960054;90;33358;-67
2022/09/10 09:13:30;;;;;;;3.65;1.25;;;;;;;23.23;64.80;99960.66;1983789;89;29586;-67
2022/09/10 09:17:05;;;;;;;2.55;1.55;;;;;;;23.21;64.67;99965.77;1984220;89;27773;-67
2022/09/10 09:20:29;;;;;;;3.25;1.35;;;;;;;23.34;64.80;99963.93;1960189;90;28615;-66
2022/09/10 09:23:41;;;;;;;2.37;1.40;;;;;;;23.59;64.76;99956.27;1990179;89;31265;-65
2022/09/10 09:26:46;;;;;;;2.72;1.30;;;;;;;23.60;63.27;99962.08;2011368;87;34375;-65
2022/09/10 09:30:01;;;;;;;4.70;1.52;;;;;;;23.47;63.20;99963.45;2015596;88;29706;-64
2022/09/10 09:33:13;;;;;;;4.03;1.40;;;;;;;23.39;63.22;99966.68;2016291;88;27658;-64
2022/09/10 09:36:18;;;;;;;2.33;1.15;;;;;;;23.44;63.87;99956.07;2015852;88;29374;-64
2022/09/10 09:39:31;;;;;;;3.25;1.20;;;;;;;23.50;62.71;99964.98;2016155;88;31164;-64
2022/09/10 09:42:47;;;;;;;4.08;1.45;;;;;;;23.54;62.64;99958.65;2016205;88;32946;-64
2022/09/10 09:45:52;;;;;;;3.42;1.15;;;;;;;23.54;62.49;99960.02;2016000;88;30522;-64
2022/09/10 09:48:59;;;;;;;2.08;1.30;;;;;;;23.47;61.82;99964.81;2015133;88;28313;-64
2022/09/10 09:52:13;;;;;;;2.22;1.20;;;;;;;23.41;62.05;99966.00;2010441;88;29161;-64
2022/09/10 09:55:25;;;;;;;2.25;1.20;;;;;;;23.25;61.46;99960.81;2007532;88;32298;-65
2022/09/10 09:58:31;;;;;;;2.62;1.42;;;;;;;23.23;61.94;99961.53;2005441;88;34320;-64
2022/09/10 10:01:33;;;;;;;3.52;1.70;;;;;;;23.20;61.43;99955.86;2011358;88;30228;-64
2022/09/10 10:04:35;;;;;;;5.53;1.55;;;;;;;23.24;61.64;99955.53;2034555;87;27805;-63
2022/09/10 10:07:37;;;;;;;3.87;1.55;;;;;;;23.32;61.66;99950.94;2007121;87;29159;-63
2022/09/10 10:10:38;;;;;;;1.80;1.20;;;;;;;23.43;61.70;99947.52;2019335;86;30963;-68
2022/09/10 10:13:45;;;;;;;3.15;1.40;;;;;;;23.54;61.18;99945.84;1957669;88;34253;-64
2022/09/10 10:16:47;;;;;;;2.58;1.30;;;;;;;23.71;61.64;99940.38;2038972;86;30035;-66
2022/09/10 10:20:10;;;;;;;3.33;1.20;;;;;;;23.81;61.38;99939.69;2038844;86;27677;-67
2022/09/10 10:23:38;;;;;;;3.77;1.45;;;;;;;24.01;61.49;99927.05;2037527;85;29922;-63
2022/09/10 10:26:39;;;;;;;3.70;1.57;;;;;;;24.17;60.95;99921.55;2033124;85;32293;-66
2022/09/10 10:29:41;;;;;;;3.58;1.65;;;;;;;24.31;59.88;99911.77;1999582;88;33427;-67
2022/09/10 10:32:58;;;;;;;2.42;1.07;;;;;;;24.23;59.71;99920.86;1986495;87;29218;-68
2022/09/10 10:36:06;;;;;;;2.83;1.47;;;;;;;24.14;59.28;99916.95;2026066;86;27720;-68
2022/09/10 10:39:19;;;;;;;3.12;1.40;;;;;;;24.08;59.24;99915.73;2000598;88;29732;-68
2022/09/10 10:42:58;;;;;;;5.55;1.57;;;;;;;24.05;59.45;99912.84;1998871;87;31464;-68
2022/09/10 10:46:07;;;;;;;3.12;1.40;;;;;;;24.05;59.21;99904.63;2023962;85;33794;-68
2022/09/10 10:49:25;;;;;;;2.45;1.72;;;;;;;23.96;58.11;99905.66;1978614;87;30433;-67
2022/09/10 10:52:45;;;;;;;2.85;1.32;;;;;;;23.86;58.25;99900.86;1991071;89;27643;-68
2022/09/10 10:56:09;;;;;;;3.60;1.42;;;;;;;23.85;58.72;99895.05;2026225;85;29964;-68
2022/09/10 10:59:46;;;;;;;7.08;1.75;;;;;;;23.91;58.76;99902.58;1985617;87;32082;-68
2022/09/10 11:03:11;;;;;;;6.12;1.40;;;;;;;23.86;57.97;99896.77;1994363;87;34351;-68
2022/09/10 11:06:20;;;;;;;2.83;1.72;;;;;;;23.81;58.20;99893.19;2037688;85;29645;-69
2022/09/10 11:09:39;;;;;;;2.20;1.12;;;;;;;23.90;58.67;99887.19;2027459;86;27692;-69
2022/09/10 11:12:46;;;;;;;4.75;1.75;;;;;;;24.03;58.93;99888.90;2001564;87;28686;-68
2022/09/10 11:16:19;;;;;;;1.52;1.22;;;;;;;24.14;58.13;99885.47;1998260;88;31035;-66
2022/09/10 11:19:47;;;;;;;2.75;1.37;;;;;;;24.16;57.32;99883.42;2038569;85;33803;-68
2022/09/10 11:23:00;;;;;;;5.80;1.30;;;;;;;24.02;57.29;99880.34;2000486;87;30319;-69
2022/09/10 11:26:16;;;;;;;5.20;1.60;;;;;;;23.98;57.49;99885.86;2037799;85;28070;-68
2022/09/10 11:29:48;;;;;;;2.08;1.15;;;;;;;24.00;57.47;99878.30;2034975;86;28916;-70
2022/09/10 11:33:06;;;;;;;3.20;1.45;;;;;;;23.89;57.09;99878.64;1998646;87;32363;-69
2022/09/10 11:36:19;;;;;;;9.45;1.27;;;;;;;23.82;57.05;99873.88;2033012;86;33046;-70
2022/09/10 11:39:33;;;;;;;2.77;0.98;;;;;;;23.77;56.87;99862.59;2039833;87;30441;-72
2022/09/10 11:42:38;;;;;;;;;;;;;;;23.77;57.10;99871.30;2034418;87;27662;-76
2022/09/10 11:45:53;;;;;;;1.32;1.00;;;;;;;23.80;56.45;99861.38;2031350;87;28936;-77
2022/09/10 11:49:03;;;;;;;2.62;0.80;;;;;;;23.81;56.93;99862.59;1960908;90;31138;-72
2022/09/10 11:52:11;;;;;;;3.00;1.10;;;;;;;23.83;56.44;99855.58;1950178;90;33001;-72
2022/09/10 11:55:20;;;;;;;3.47;1.50;;;;;;;23.87;56.07;99854.70;1926004;92;31852;-74
2022/09/10 11:58:44;;;;;;;2.75;1.42;;;;;;;23.94;56.52;99855.20;1926217;91;27817;-70
2022/09/10 12:02:33;;;;;;;2.67;1.37;;;;;;;23.95;55.76;99853.33;1926386;92;28642;-69
2022/09/10 12:06:11;;;;;;;2.42;1.22;;;;;;;23.86;55.95;99845.66;1926002;92;32417;-69
2022/09/10 12:09:26;;;;;;;2.80;1.20;;;;;;;23.79;55.93;99852.84;1926402;92;33031;-71
2022/09/10 12:12:42;;;;;;;3.05;1.40;;;;;;;23.73;55.60;99846.19;1926380;92;29926;-68
2022/09/10 12:15:50;;;;;;;2.25;1.40;;;;;;;23.64;55.63;99848.60;1926568;92;28170;-68
2022/09/10 12:18:53;;;;;;;2.12;0.93;;;;;;;23.50;55.55;99848.25;1926957;90;28715;-68
2022/09/10 12:22:02;;;;;;;1.90;1.20;;;;;;;23.39;55.77;99835.47;1925386;90;32044;-63
2022/09/10 12:25:18;;;;;;;1.72;1.07;;;;;;;23.31;55.87;99836.32;1948453;87;32976;-64
2022/09/10 12:28:54;;;;;;;3.60;1.27;;;;;;;23.23;56.26;99842.64;2030793;86;29704;-70
2022/09/10 12:32:23;;;;;;;7.10;1.50;;;;;;;23.15;56.20;99842.09;2025594;87;27701;-69
2022/09/10 12:35:36;;;;;;;3.92;1.60;;;;;;;23.19;57.03;99839.34;2029305;87;29084;-69
2022/09/10 12:39:20;;;;;;;3.20;1.10;;;;;;;23.34;57.49;99840.92;2028755;87;31789;-71
2022/09/10 12:42:35;;;;;;;2.60;1.20;;;;;;;23.54;57.29;99831.01;1926513;91;34236;-70
2022/09/10 12:46:03;;;;;;;;;;;;;;;23.74;56.88;99820.55;1909844;92;30428;-69
2022/09/10 12:49:11;;;;;;;3.35;1.30;;;;;;;23.86;57.09;99815.56;1908164;93;27841;-70
2022/09/10 12:52:22;;;;;;;2.83;1.07;;;;;;;23.91;56.98;99815.03;1890754;94;28729;-69
2022/09/10 12:55:54;;;;;;;2.65;1.05;;;;;;;24.01;56.83;99815.70;1918222;92;32456;-68
2022/09/10 12:59:47;;;;;;;2.65;1.45;;;;;;;24.12;56.99;99815.34;1914558;92;34193;-69
2022/09/10 13:03:08;;;;;;;3.80;1.12;;;;;;;24.29;57.25;99813.91;1919033;92;30767;-68
2022/09/10 13:06:09;;;;;;;3.25;1.22;;;;;;;24.46;57.17;99814.66;1919932;92;27811;-67
2022/09/10 13:09:31;;;;;;;6.35;1.37;;;;;;;24.57;56.60;99818.89;1919983;92;30171;-70
2022/09/10 13:12:34;;;;;;;5.95;1.67;;;;;;;24.61;56.50;99818.87;1919737;92;30500;-70
2022/09/10 13:15:37;;;;;;;3.87;1.65;;;;;;;24.63;56.32;99820.05;1917792;91;32975;-68
2022/09/10 13:18:40;;;;;;;6.77;2.00;;;;;;;24.56;56.48;99813.08;1913334;90;29793;-76
2022/09/10 13:21:49;;;;;;;5.15;1.90;;;;;;;24.45;56.59;99811.59;1991368;87;28320;-70
2022/09/10 13:25:01;;;;;;;4.30;1.12;;;;;;;24.31;56.35;99815.08;1998660;88;28776;-67
2022/09/10 13:28:32;;;;;;;1.72;1.12;;;;;;;24.18;56.31;99811.04;2000604;88;31070;-70
2022/09/10 13:31:37;;;;;;;1.77;1.00;;;;;;;24.04;56.19;99806.31;1966424;89;33715;-68
2022/09/10 13:34:59;;;;;;;1.70;0.85;;;;;;;23.88;56.14;99796.22;1999110;87;30898;-69
2022/09/10 13:38:43;;;;;;;2.92;1.17;;;;;;;23.73;55.87;99789.27;2000109;87;28094;-64
2022/09/10 13:42:21;;;;;;;1.87;0.98;;;;;;;23.60;56.00;99795.28;1982865;88;28498;-60
2022/09/10 13:45:42;;;;;;;2.40;0.80;;;;;;;23.51;56.48;99799.38;1994227;87;31752;-63
2022/09/10 13:49:02;;;;;;;3.35;1.30;;;;;;;23.41;56.37;99797.34;1983084;88;34197;-60
2022/09/10 13:52:09;;;;;;;2.08;0.95;;;;;;;23.31;56.70;99795.32;2012552;87;29641;-62
2022/09/10 13:55:19;;;;;;;2.08;0.88;;;;;;;23.24;56.83;99803.36;2030390;87;27701;-60
2022/09/10 13:58:27;;;;;;;2.08;1.30;;;;;;;23.15;56.32;99797.00;2031141;87;29082;-60
2022/09/10 14:01:52;;;;;;;2.02;0.90;;;;;;;23.14;56.72;99795.30;2029293;87;30975;-61
2022/09/10 14:04:54;;;;;;;3.52;1.10;;;;;;;23.09;56.51;99796.31;2032680;86;32769;-61
2022/09/10 14:08:00;;;;;;;2.85;1.50;;;;;;;23.04;56.82;99785.90;2033987;86;30769;-60
2022/09/10 14:11:13;;;;;;;4.40;1.27;;;;;;;23.01;56.82;99795.80;2029043;86;27728;-65
2022/09/10 14:14:19;;;;;;;2.10;1.10;;;;;;;23.00;56.79;99789.15;2023167;87;29151;-63
2022/09/10 14:17:24;;;;;;;2.95;1.00;;;;;;;23.03;56.98;99781.95;1990054;89;31059;-62
2022/09/10 14:20:32;;;;;;;3.45;1.50;;;;;;;23.03;56.73;99781.95;1989830;89;34112;-60
2022/09/10 14:23:34;;;;;;;1.75;1.10;;;;;;;22.91;56.34;99783.66;2022515;86;30095;-59
2022/09/10 14:26:35;;;;;;;3.58;1.40;;;;;;;22.80;56.54;99784.50;2022275;86;28262;-61
2022/09/10 14:29:37;;;;;;;4.50;1.72;;;;;;;22.72;56.90;99779.38;2019244;87;28578;-60
2022/09/10 14:32:38;;;;;;;2.40;1.22;;;;;;;22.63;57.15;99779.53;1977664;88;32172;-58
2022/09/10 14:35:44;;;;;;;3.67;1.98;;;;;;;22.48;57.25;99782.05;2026378;86;34236;-62
2022/09/10 14:38:57;;;;;;;6.70;1.82;;;;;;;22.40;57.57;99784.22;2025681;86;30479;-60
2022/09/10 14:42:26;;;;;;;4.92;1.57;;;;;;;22.33;57.55;99785.91;2016822;86;28321;-62
2022/09/10 14:45:45;;;;;;;3.37;1.67;;;;;;;22.18;57.39;99796.06;2030561;85;29423;-65
2022/09/10 14:49:04;;;;;;;1.92;1.10;;;;;;;21.96;56.98;99807.92;2040783;86;31024;-61